createdAt,value
2018-06-01T00:01:09.127Z,16.90
2018-06-01T00:03:36.557Z,17.00
2018-06-01T00:06:04.052Z,17.00
2018-06-01T00:08:32.354Z,17.10
2018-06-01T00:10:59.792Z,17.10
2018-06-01T00:13:27.244Z,17.10
2018-06-01T00:15:54.805Z,17.00
2018-06-01T00:18:22.247Z,16.90
2018-06-01T00:20:49.678Z,16.90
2018-06-01T00:23:17.107Z,16.90
2018-06-01T00:25:44.539Z,16.90
2018-06-01T00:28:11.975Z,16.80
2018-06-01T00:30:39.402Z,16.80
2018-06-01T00:33:06.987Z,16.80
2018-06-01T00:35:34.731Z,16.80
2018-06-01T00:38:02.226Z,16.70
2018-06-01T00:40:29.966Z,16.70
2018-06-01T00:42:57.417Z,16.60
2018-06-01T00:45:24.847Z,16.60
2018-06-01T00:47:52.272Z,16.60
2018-06-01T00:50:19.791Z,16.60
2018-06-01T00:52:47.241Z,16.50
2018-06-01T00:55:24.578Z,16.50
2018-06-01T00:57:52.167Z,16.60
2018-06-01T01:00:19.756Z,16.50
2018-06-01T01:02:47.170Z,16.60
2018-06-01T01:05:14.664Z,16.60
2018-06-01T01:07:42.122Z,16.60
2018-06-01T01:10:09.570Z,16.60
2018-06-01T01:12:37.031Z,16.60
2018-06-01T01:15:04.493Z,16.60
2018-06-01T01:17:31.946Z,16.60
2018-06-01T01:19:59.401Z,16.60
2018-06-01T01:22:26.835Z,16.60
2018-06-01T01:24:54.254Z,16.70
2018-06-01T01:27:21.686Z,16.80
2018-06-01T01:29:49.128Z,16.80
2018-06-01T01:32:16.601Z,16.90
2018-06-01T01:34:44.027Z,16.90
2018-06-01T01:37:11.512Z,16.90
2018-06-01T01:39:38.937Z,16.90
2018-06-01T01:42:06.507Z,17.00
2018-06-01T01:44:33.959Z,17.00
2018-06-01T01:47:01.414Z,17.00
2018-06-01T01:49:28.842Z,17.00
2018-06-01T01:51:56.285Z,17.00
2018-06-01T01:54:23.791Z,17.00
2018-06-01T01:56:51.437Z,17.10
2018-06-01T01:59:18.915Z,17.10
2018-06-01T02:01:46.462Z,17.10
2018-06-01T02:04:14.236Z,17.10
2018-06-01T02:06:41.673Z,17.10
2018-06-01T02:09:09.115Z,17.10
2018-06-01T02:11:36.606Z,17.10
2018-06-01T02:14:04.050Z,17.10
2018-06-01T02:16:31.512Z,17.10
2018-06-01T02:18:59.143Z,17.10
2018-06-01T02:21:26.577Z,17.10
2018-06-01T02:23:54.807Z,17.20
2018-06-01T02:26:22.259Z,17.10
2018-06-01T02:28:49.715Z,17.20
2018-06-01T02:31:17.157Z,17.20
2018-06-01T02:33:44.626Z,17.30
2018-06-01T02:36:12.069Z,17.30
2018-06-01T02:38:39.910Z,17.30
2018-06-01T02:41:07.331Z,17.30
2018-06-01T02:43:36.277Z,17.20
2018-06-01T02:46:03.742Z,17.20
2018-06-01T02:48:31.202Z,17.20
2018-06-01T02:51:00.364Z,17.20
2018-06-01T02:53:28.560Z,17.30
2018-06-01T02:55:55.979Z,17.30
2018-06-01T02:58:23.483Z,17.30
2018-06-01T03:00:50.903Z,17.30
2018-06-01T03:03:18.335Z,17.20
2018-06-01T03:05:45.855Z,17.20
2018-06-01T03:08:13.303Z,17.20
2018-06-01T03:10:40.723Z,17.20
2018-06-01T03:13:08.222Z,17.30
2018-06-01T03:15:35.678Z,17.30
2018-06-01T03:18:03.125Z,17.30
2018-06-01T03:20:30.542Z,17.30
2018-06-01T03:22:57.983Z,17.30
2018-06-01T03:25:25.396Z,17.30
2018-06-01T03:27:52.875Z,17.40
2018-06-01T03:30:20.421Z,17.40
2018-06-01T03:32:47.870Z,17.50
2018-06-01T03:35:15.331Z,17.50
2018-06-01T03:37:46.516Z,17.60
2018-06-01T03:40:14.851Z,17.60
2018-06-01T03:42:42.315Z,17.60
2018-06-01T03:45:09.745Z,17.60
2018-06-01T03:47:37.170Z,17.60
2018-06-01T03:50:04.588Z,17.60
2018-06-01T03:52:32.025Z,17.70
2018-06-01T03:54:59.440Z,17.70
2018-06-01T03:57:27.648Z,17.70
2018-06-01T03:59:55.074Z,17.70
2018-06-01T04:02:22.508Z,17.80
2018-06-01T04:04:49.939Z,17.70
2018-06-01T04:07:17.369Z,17.80
2018-06-01T04:09:44.802Z,17.80
2018-06-01T04:12:12.222Z,17.80
2018-06-01T04:14:39.661Z,17.80
2018-06-01T04:17:07.079Z,17.80
2018-06-01T04:19:34.506Z,17.80
2018-06-01T04:22:01.939Z,17.80
2018-06-01T04:24:29.370Z,17.80
2018-06-01T04:26:56.804Z,17.80
2018-06-01T04:29:24.237Z,17.80
2018-06-01T04:31:51.662Z,17.80
2018-06-01T04:34:19.172Z,17.80
2018-06-01T04:36:46.624Z,17.90
2018-06-01T04:39:14.063Z,17.90
2018-06-01T04:41:42.254Z,17.90
2018-06-01T04:44:09.889Z,17.90
2018-06-01T04:46:38.082Z,17.90
2018-06-01T04:49:05.517Z,17.90
2018-06-01T04:51:32.934Z,17.90
2018-06-01T04:54:00.375Z,17.90
2018-06-01T04:56:27.795Z,17.80
2018-06-01T04:58:55.230Z,17.90
2018-06-01T05:01:22.652Z,18.00
2018-06-01T05:03:50.083Z,18.00
2018-06-01T05:06:17.506Z,18.10
2018-06-01T05:08:45.703Z,18.10
2018-06-01T05:11:13.133Z,18.10
2018-06-01T05:13:40.560Z,18.10
2018-06-01T05:16:07.987Z,18.20
2018-06-01T05:18:35.419Z,18.20
2018-06-01T05:21:02.851Z,18.20
2018-06-01T05:23:30.287Z,18.20
2018-06-01T05:25:57.700Z,18.30
2018-06-01T05:28:25.142Z,18.40
2018-06-01T05:30:52.561Z,18.40
2018-06-01T05:33:19.983Z,18.50
2018-06-01T05:35:47.420Z,18.50
2018-06-01T05:38:14.841Z,18.50
2018-06-01T05:40:42.359Z,18.50
2018-06-01T05:43:09.787Z,18.50
2018-06-01T05:45:37.219Z,18.50
2018-06-01T05:48:04.716Z,18.60
2018-06-01T05:50:32.148Z,18.60
2018-06-01T05:52:59.125Z,18.60
2018-06-01T05:55:26.695Z,18.70
2018-06-01T05:57:54.139Z,18.80
2018-06-01T06:00:21.562Z,18.80
2018-06-01T06:02:49.150Z,18.80
2018-06-01T06:05:16.607Z,18.90
2018-06-01T06:07:44.057Z,18.90
2018-06-01T06:10:11.492Z,18.90
2018-06-01T06:12:38.921Z,19.00
2018-06-01T06:15:06.355Z,19.00
2018-06-01T06:17:33.886Z,19.00
2018-06-01T06:20:01.323Z,19.10
2018-06-01T06:22:28.806Z,19.10
2018-06-01T06:24:56.263Z,19.10
2018-06-01T06:27:24.347Z,19.10
2018-06-01T06:29:51.817Z,19.20
2018-06-01T06:32:19.304Z,19.20
2018-06-01T06:34:47.000Z,19.30
2018-06-01T06:37:14.473Z,19.30
2018-06-01T06:39:41.924Z,19.30
2018-06-01T06:42:09.386Z,19.30
2018-06-01T06:44:36.875Z,19.40
2018-06-01T06:47:05.022Z,19.40
2018-06-01T06:49:32.491Z,19.50
2018-06-01T06:52:00.695Z,19.50
2018-06-01T06:54:30.674Z,19.50
2018-06-01T06:56:58.144Z,19.50
2018-06-01T06:59:27.857Z,19.70
2018-06-01T07:01:56.205Z,19.70
2018-06-01T07:04:23.638Z,19.80
2018-06-01T07:06:51.086Z,19.80
2018-06-01T07:09:18.543Z,19.90
2018-06-01T07:11:46.224Z,20.00
2018-06-01T07:14:13.642Z,20.00
2018-06-01T07:16:41.986Z,20.00
2018-06-01T07:19:09.409Z,19.90
2018-06-01T07:21:36.869Z,20.00
2018-06-01T07:24:04.351Z,20.10
2018-06-01T07:26:31.787Z,20.00
2018-06-01T07:28:59.288Z,20.10
2018-06-01T07:31:26.791Z,20.20
2018-06-01T07:33:54.231Z,20.20
2018-06-01T07:36:21.669Z,20.20
2018-06-01T07:38:49.100Z,20.20
2018-06-01T07:41:17.544Z,20.30
2018-06-01T07:43:44.958Z,20.30
2018-06-01T07:46:12.477Z,20.50
2018-06-01T07:48:40.012Z,20.60
2018-06-01T07:51:07.586Z,20.60
2018-06-01T07:53:35.139Z,20.60
2018-06-01T07:56:02.574Z,20.60
2018-06-01T07:58:30.047Z,20.60
2018-06-01T08:00:57.493Z,20.60
2018-06-01T08:03:24.962Z,20.50
2018-06-01T08:05:52.411Z,20.50
2018-06-01T08:08:21.935Z,20.60
2018-06-01T08:10:49.388Z,20.60
2018-06-01T08:13:16.813Z,20.60
2018-06-01T08:15:44.247Z,20.60
2018-06-01T08:18:11.850Z,20.70
2018-06-01T08:20:39.292Z,20.70
2018-06-01T08:23:06.758Z,20.80
2018-06-01T08:25:34.396Z,20.70
2018-06-01T08:28:01.842Z,20.70
2018-06-01T08:30:29.439Z,20.80
2018-06-01T08:32:56.948Z,20.70
2018-06-01T08:35:24.469Z,20.80
2018-06-01T08:37:51.909Z,20.80
2018-06-01T08:40:19.894Z,20.90
2018-06-01T08:42:47.383Z,21.00
2018-06-01T08:45:15.117Z,21.00
2018-06-01T08:47:42.847Z,21.10
2018-06-01T08:50:10.328Z,21.10
2018-06-01T08:52:37.754Z,21.10
2018-06-01T08:55:05.220Z,21.20
2018-06-01T08:57:32.704Z,21.20
2018-06-01T09:00:00.553Z,21.10
2018-06-01T09:02:28.084Z,21.10
2018-06-01T09:04:56.293Z,21.10
2018-06-01T09:07:24.049Z,21.20
2018-06-01T09:09:51.698Z,21.20
2018-06-01T09:12:19.154Z,21.30
2018-06-01T09:14:46.628Z,21.30
2018-06-01T09:17:14.228Z,21.40
2018-06-01T09:19:41.679Z,21.50
2018-06-01T09:22:09.440Z,21.50
2018-06-01T09:24:36.840Z,21.50
2018-06-01T09:27:04.311Z,21.50
2018-06-01T09:29:31.750Z,21.60
2018-06-01T09:31:59.239Z,21.60
2018-06-01T09:34:26.772Z,21.80
2018-06-01T09:36:54.789Z,21.90
2018-06-01T09:39:22.297Z,21.90
2018-06-01T09:41:49.812Z,21.90
2018-06-01T09:44:18.893Z,22.00
2018-06-01T09:46:47.291Z,22.00
2018-06-01T09:49:14.815Z,22.20
2018-06-01T09:51:42.324Z,22.30
2018-06-01T09:54:10.437Z,22.40
2018-06-01T09:56:37.943Z,22.40
2018-06-01T09:59:06.233Z,22.50
2018-06-01T10:01:35.044Z,22.50
2018-06-01T10:04:02.543Z,22.70
2018-06-01T10:06:29.968Z,22.80
2018-06-01T10:08:57.433Z,22.90
2018-06-01T10:11:24.946Z,23.00
2018-06-01T10:13:53.208Z,22.80
2018-06-01T10:16:21.543Z,22.90
2018-06-01T10:18:50.116Z,22.90
2018-06-01T10:21:19.211Z,22.90
2018-06-01T10:23:48.539Z,22.90
2018-06-01T10:26:16.421Z,23.00
2018-06-01T10:28:43.957Z,23.10
2018-06-01T10:31:11.375Z,23.20
2018-06-01T10:33:39.010Z,23.30
2018-06-01T10:36:06.530Z,23.20
2018-06-01T10:38:34.115Z,23.20
2018-06-01T10:41:01.709Z,23.30
2018-06-01T10:43:29.140Z,23.40
2018-06-01T10:45:56.724Z,23.40
2018-06-01T10:48:24.487Z,23.40
2018-06-01T10:50:52.247Z,23.30
2018-06-01T10:53:19.710Z,23.30
2018-06-01T10:55:47.163Z,23.40
2018-06-01T10:58:14.611Z,23.40
2018-06-01T11:00:42.074Z,23.50
2018-06-01T11:03:09.848Z,23.70
2018-06-01T11:05:37.602Z,23.70
2018-06-01T11:08:05.063Z,23.70
2018-06-01T11:10:32.811Z,23.80
2018-06-01T11:13:00.239Z,23.70
2018-06-01T11:15:27.732Z,23.80
2018-06-01T11:17:55.185Z,23.80
2018-06-01T11:20:22.822Z,23.90
2018-06-01T11:22:50.414Z,24.00
2018-06-01T11:25:17.827Z,24.10
2018-06-01T11:27:45.315Z,24.20
2018-06-01T11:30:12.780Z,24.40
2018-06-01T11:32:40.212Z,24.40
2018-06-01T11:35:07.633Z,24.40
2018-06-01T11:37:35.062Z,24.30
2018-06-01T11:40:02.503Z,24.30
2018-06-01T11:42:29.927Z,24.30
2018-06-01T11:44:58.127Z,24.50
2018-06-01T11:47:25.630Z,24.50
2018-06-01T11:49:53.546Z,24.60
2018-06-01T11:52:21.171Z,24.60
2018-06-01T11:54:48.639Z,24.50
2018-06-01T11:57:16.169Z,24.40
2018-06-01T11:59:43.570Z,24.40
2018-06-01T12:02:11.044Z,24.30
2018-06-01T12:04:38.499Z,24.40
2018-06-01T12:07:05.947Z,24.50
2018-06-01T12:09:33.587Z,24.70
2018-06-01T12:12:01.037Z,24.90
2018-06-01T12:14:28.547Z,25.00
2018-06-01T12:16:56.112Z,24.90
2018-06-01T12:19:23.574Z,24.90
2018-06-01T12:21:51.374Z,25.00
2018-06-01T12:24:18.942Z,25.00
2018-06-01T12:26:46.460Z,25.00
2018-06-01T12:29:14.094Z,25.10
2018-06-01T12:31:42.275Z,25.60
2018-06-01T12:34:09.866Z,25.60
2018-06-01T12:36:37.288Z,25.80
2018-06-01T12:39:05.385Z,26.00
2018-06-01T12:41:34.613Z,26.30
2018-06-01T12:44:02.170Z,26.80
2018-06-01T12:46:30.427Z,28.10
2018-06-01T12:48:58.126Z,28.10
2018-06-01T12:51:25.590Z,28.40
2018-06-01T12:53:53.146Z,29.10
2018-06-01T12:56:21.217Z,29.70
2018-06-01T12:58:48.765Z,29.70
2018-06-01T13:01:16.286Z,28.80
2018-06-01T13:03:43.814Z,28.40
2018-06-01T13:06:11.423Z,28.00
2018-06-01T13:08:40.075Z,28.80
2018-06-01T13:11:07.695Z,29.90
2018-06-01T13:13:35.148Z,30.50
2018-06-01T13:16:02.603Z,30.70
2018-06-01T13:18:30.061Z,30.10
2018-06-01T13:20:57.490Z,28.70
2018-06-01T13:23:24.973Z,27.70
2018-06-01T13:25:52.403Z,26.70
2018-06-01T13:28:19.839Z,25.90
2018-06-01T13:30:47.351Z,25.40
2018-06-01T13:33:14.782Z,25.00
2018-06-01T13:35:42.213Z,24.70
2018-06-01T13:38:09.894Z,24.30
2018-06-01T13:40:37.479Z,24.30
2018-06-01T13:43:04.959Z,24.10
2018-06-01T13:45:32.354Z,24.00
2018-06-01T13:47:59.850Z,24.10
2018-06-01T13:50:27.287Z,24.10
2018-06-01T13:52:54.762Z,24.20
2018-06-01T13:55:22.211Z,24.40
2018-06-01T13:57:49.642Z,24.80
2018-06-01T14:00:17.072Z,25.50
2018-06-01T14:02:44.512Z,26.30
2018-06-01T14:05:11.959Z,27.20
2018-06-01T14:07:39.494Z,27.80
2018-06-01T14:10:07.134Z,27.90
2018-06-01T14:12:34.625Z,27.80
2018-06-01T14:15:02.062Z,27.90
2018-06-01T14:17:29.526Z,28.00
2018-06-01T14:19:56.974Z,28.20
2018-06-01T14:22:24.443Z,28.60
2018-06-01T14:24:51.991Z,28.60
2018-06-01T14:27:20.344Z,28.40
2018-06-01T14:29:47.822Z,28.30
2018-06-01T14:32:15.282Z,28.30
2018-06-01T14:34:42.742Z,28.40
2018-06-01T14:37:10.191Z,28.20
2018-06-01T14:39:37.624Z,28.20
2018-06-01T14:42:05.116Z,28.00
2018-06-01T14:44:32.572Z,27.70
2018-06-01T14:47:00.099Z,27.50
2018-06-01T14:49:27.430Z,27.50
2018-06-01T14:51:54.852Z,27.60
2018-06-01T14:54:22.309Z,27.90
2018-06-01T14:56:49.855Z,27.80
2018-06-01T14:59:17.302Z,28.10
2018-06-01T15:01:44.778Z,28.20
2018-06-01T15:04:12.527Z,28.10
2018-06-01T15:06:40.016Z,28.10
2018-06-01T15:09:07.567Z,28.10
2018-06-01T15:11:35.198Z,28.20
2018-06-01T15:14:03.117Z,28.20
2018-06-01T15:16:30.718Z,28.50
2018-06-01T15:18:58.192Z,28.80
2018-06-01T15:21:25.634Z,29.20
2018-06-01T15:23:53.311Z,29.50
2018-06-01T15:26:20.805Z,29.70
2018-06-01T15:28:48.226Z,30.00
2018-06-01T15:31:15.806Z,30.20
2018-06-01T15:33:43.409Z,30.50
2018-06-01T15:36:10.899Z,30.60
2018-06-01T15:38:41.909Z,30.80
2018-06-01T15:41:09.471Z,30.90
2018-06-01T15:43:36.977Z,31.10
2018-06-01T15:46:04.494Z,31.30
2018-06-01T15:48:31.959Z,31.20
2018-06-01T15:50:59.447Z,31.10
2018-06-01T15:53:27.043Z,31.00
2018-06-01T15:55:54.514Z,31.00
2018-06-01T15:58:21.983Z,30.80
2018-06-01T16:00:49.548Z,30.60
2018-06-01T16:03:16.994Z,30.20
2018-06-01T16:05:44.420Z,29.90
2018-06-01T16:08:11.907Z,29.70
2018-06-01T16:10:39.331Z,29.60
2018-06-01T16:13:06.827Z,29.50
2018-06-01T16:15:34.463Z,29.50
2018-06-01T16:18:01.879Z,29.50
2018-06-01T16:20:29.375Z,29.50
2018-06-01T16:22:56.853Z,29.60
2018-06-01T16:25:24.383Z,29.80
2018-06-01T16:27:51.816Z,29.70
2018-06-01T16:30:19.247Z,29.70
2018-06-01T16:32:46.685Z,29.70
2018-06-01T16:35:14.242Z,29.70
2018-06-01T16:37:41.680Z,29.70
2018-06-01T16:40:09.195Z,29.50
2018-06-01T16:42:36.831Z,29.40
2018-06-01T16:45:04.363Z,29.40
2018-06-01T16:47:31.787Z,29.30
2018-06-01T16:49:59.215Z,29.10
2018-06-01T16:52:26.733Z,29.10
2018-06-01T16:54:54.166Z,28.90
2018-06-01T16:57:21.661Z,28.70
2018-06-01T16:59:49.082Z,28.70
2018-06-01T17:02:16.515Z,28.60
2018-06-01T17:04:43.950Z,28.60
2018-06-01T17:07:12.396Z,28.50
2018-06-01T17:09:39.826Z,28.50
2018-06-01T17:12:07.315Z,28.40
2018-06-01T17:14:34.739Z,28.50
2018-06-01T17:17:02.164Z,28.40
2018-06-01T17:19:29.850Z,28.40
2018-06-01T17:21:57.295Z,28.30
2018-06-01T17:24:25.516Z,28.20
2018-06-01T17:26:52.934Z,28.20
2018-06-01T17:29:20.363Z,28.20
2018-06-01T17:31:48.805Z,28.00
2018-06-01T17:34:16.223Z,28.00
2018-06-01T17:36:43.707Z,27.90
2018-06-01T17:39:11.131Z,27.80
2018-06-01T17:41:38.566Z,27.70
2018-06-01T17:44:06.079Z,27.70
2018-06-01T17:46:33.536Z,27.50
2018-06-01T17:49:00.965Z,27.40
2018-06-01T17:51:28.446Z,27.40
2018-06-01T17:53:55.897Z,27.30
2018-06-01T17:56:23.359Z,27.20
2018-06-01T17:58:50.818Z,27.00
2018-06-01T18:01:18.254Z,26.80
2018-06-01T18:03:45.727Z,26.70
2018-06-01T18:06:13.427Z,26.50
2018-06-01T18:08:40.862Z,26.50
2018-06-01T18:11:08.404Z,26.30
2018-06-01T18:13:36.693Z,26.20
2018-06-01T18:16:04.749Z,26.20
2018-06-01T18:18:32.314Z,26.10
2018-06-01T18:20:59.748Z,26.10
2018-06-01T18:23:27.226Z,26.10
2018-06-01T18:25:54.674Z,26.10
2018-06-01T18:28:22.178Z,25.90
2018-06-01T18:30:49.608Z,25.80
2018-06-01T18:33:17.047Z,25.80
2018-06-01T18:35:44.487Z,25.70
2018-06-01T18:38:11.949Z,25.60
2018-06-01T18:40:39.382Z,25.60
2018-06-01T18:43:06.822Z,25.50
2018-06-01T18:45:34.252Z,25.50
2018-06-01T18:48:01.720Z,25.50
2018-06-01T18:50:29.143Z,25.40
2018-06-01T18:52:56.610Z,25.40
2018-06-01T18:55:24.163Z,25.30
2018-06-01T18:57:52.285Z,25.30
2018-06-01T19:00:19.787Z,25.30
2018-06-01T19:02:47.370Z,25.10
2018-06-01T19:05:14.823Z,25.10
2018-06-01T19:07:42.354Z,25.10
2018-06-01T19:10:09.819Z,25.00
2018-06-01T19:12:37.669Z,25.00
2018-06-01T19:15:05.126Z,24.80
2018-06-01T19:17:32.850Z,24.70
2018-06-01T19:20:00.499Z,24.50
2018-06-01T19:22:27.950Z,24.50
2018-06-01T19:24:55.405Z,24.40
2018-06-01T19:27:22.841Z,24.40
2018-06-01T19:29:50.295Z,24.40
2018-06-01T19:32:18.666Z,24.30
2018-06-01T19:34:46.210Z,24.20
2018-06-01T19:37:13.637Z,24.20
2018-06-01T19:39:41.059Z,24.10
2018-06-01T19:42:08.517Z,24.10
2018-06-01T19:44:35.947Z,24.00
2018-06-01T19:47:03.378Z,24.00
2018-06-01T19:49:30.899Z,23.90
2018-06-01T19:51:58.315Z,23.80
2018-06-01T19:54:25.871Z,23.70
2018-06-01T19:56:53.299Z,23.70
2018-06-01T19:59:20.726Z,23.70
2018-06-01T20:01:48.194Z,23.80
2018-06-01T20:06:49.898Z,23.70
2018-06-01T20:09:17.383Z,23.50
2018-06-01T20:11:44.998Z,23.50
2018-06-01T20:14:12.624Z,23.50
2018-06-01T20:16:40.019Z,23.40
2018-06-01T20:19:07.486Z,23.30
2018-06-01T20:21:34.919Z,23.20
2018-06-01T20:24:02.398Z,23.20
2018-06-01T20:26:29.853Z,23.20
2018-06-01T20:28:57.306Z,23.10
2018-06-01T20:31:24.734Z,23.00
2018-06-01T20:33:52.222Z,22.90
2018-06-01T20:36:19.684Z,22.80
2018-06-01T20:38:47.143Z,22.80
2018-06-01T20:41:14.604Z,22.70
2018-06-01T20:43:42.041Z,22.70
2018-06-01T20:46:09.465Z,22.60
2018-06-01T20:48:36.962Z,22.50
2018-06-01T20:51:04.409Z,22.30
2018-06-01T20:53:31.824Z,22.20
2018-06-01T20:55:59.336Z,22.20
2018-06-01T20:58:26.758Z,22.20
2018-06-01T21:00:54.194Z,22.20
2018-06-01T21:03:21.620Z,22.10
2018-06-01T21:05:49.158Z,22.10
2018-06-01T21:08:16.578Z,22.00
2018-06-01T21:10:44.022Z,22.00
2018-06-01T21:13:11.445Z,21.90
2018-06-01T21:15:38.897Z,21.90
2018-06-01T21:18:06.443Z,21.80
2018-06-01T21:20:34.201Z,21.80
2018-06-01T21:23:01.631Z,21.80
2018-06-01T21:25:29.067Z,21.80
2018-06-01T21:27:56.491Z,21.80
2018-06-01T21:30:23.933Z,21.80
2018-06-01T21:32:51.355Z,21.70
2018-06-01T21:35:18.958Z,21.60
2018-06-01T21:37:46.899Z,21.60
2018-06-01T21:40:14.463Z,21.50
2018-06-01T21:42:41.919Z,21.50
2018-06-01T21:45:09.357Z,21.40
2018-06-01T21:47:36.830Z,21.40
2018-06-01T21:50:04.271Z,21.30
2018-06-01T21:52:31.678Z,21.30
2018-06-01T21:54:59.121Z,21.20
2018-06-01T21:57:26.654Z,21.30
2018-06-01T21:59:54.119Z,21.20
2018-06-01T22:02:21.538Z,21.20
2018-06-01T22:04:49.827Z,21.20
2018-06-01T22:07:17.245Z,21.10
2018-06-01T22:09:44.674Z,21.10
2018-06-01T22:12:12.245Z,21.00
2018-06-01T22:14:39.771Z,21.00
2018-06-01T22:17:07.420Z,20.90
2018-06-01T22:19:34.898Z,20.90
2018-06-01T22:22:02.340Z,20.80
2018-06-01T22:24:29.780Z,20.80
2018-06-01T22:26:57.267Z,20.70
2018-06-01T22:29:24.694Z,20.80
2018-06-01T22:31:52.184Z,20.80
2018-06-01T22:34:19.738Z,20.70
2018-06-01T22:36:47.175Z,20.70
2018-06-01T22:39:14.599Z,20.70
2018-06-01T22:41:42.052Z,20.70
2018-06-01T22:44:09.491Z,20.80
2018-06-01T22:46:37.027Z,20.80
2018-06-01T22:49:04.459Z,20.80
2018-06-01T22:51:31.894Z,20.80
2018-06-01T22:53:59.318Z,20.80
2018-06-01T22:56:26.836Z,20.70
2018-06-01T22:58:54.250Z,20.70
2018-06-01T23:01:21.747Z,20.70
2018-06-01T23:03:49.204Z,20.70
2018-06-01T23:06:16.629Z,20.80
2018-06-01T23:08:44.115Z,20.80
2018-06-01T23:11:11.560Z,20.80
2018-06-01T23:13:38.979Z,20.80
2018-06-01T23:16:06.410Z,20.70
2018-06-01T23:18:33.842Z,20.70
2018-06-01T23:21:01.295Z,20.70
2018-06-01T23:23:28.724Z,20.70
2018-06-01T23:25:56.181Z,20.70
2018-06-01T23:28:23.674Z,20.70
2018-06-01T23:30:51.367Z,20.60
2018-06-01T23:33:19.579Z,20.70
2018-06-01T23:35:47.007Z,20.70
2018-06-01T23:38:14.442Z,20.70
2018-06-01T23:40:41.985Z,20.60
2018-06-01T23:43:09.729Z,20.60
2018-06-01T23:45:37.142Z,20.60
2018-06-01T23:48:04.583Z,20.70
2018-06-01T23:50:32.894Z,20.60
2018-06-01T23:53:00.471Z,20.60
2018-06-01T23:55:27.891Z,20.60
2018-06-01T23:57:55.329Z,20.60
